sensor_id;sensor_type;location;lat;lon;timestamp;P1;durP1;ratioP1;P2;durP2;ratioP2
77888;SDS011;67082;41.704;44.768;2023-04-15T00:00:06;4.35;;;3.03;;
77888;SDS011;67082;41.704;44.768;2023-04-15T00:02:59;4.13;;;2.90;;
77888;SDS011;67082;41.704;44.768;2023-04-15T00:05:29;6.10;;;3.42;;
77888;SDS011;67082;41.704;44.768;2023-04-15T00:07:57;6.78;;;3.67;;
77888;SDS011;67082;41.704;44.768;2023-04-15T00:10:26;4.05;;;2.78;;
77888;SDS011;67082;41.704;44.768;2023-04-15T00:12:54;5.10;;;3.40;;
77888;SDS011;67082;41.704;44.768;2023-04-15T00:15:22;5.15;;;3.60;;
77888;SDS011;67082;41.704;44.768;2023-04-15T00:17:50;5.68;;;3.33;;
77888;SDS011;67082;41.704;44.768;2023-04-15T00:20:18;5.28;;;3.30;;
77888;SDS011;67082;41.704;44.768;2023-04-15T00:22:47;6.32;;;3.47;;
77888;SDS011;67082;41.704;44.768;2023-04-15T00:25:15;5.45;;;3.10;;
77888;SDS011;67082;41.704;44.768;2023-04-15T00:27:43;5.22;;;2.80;;
77888;SDS011;67082;41.704;44.768;2023-04-15T00:30:14;5.63;;;3.05;;
77888;SDS011;67082;41.704;44.768;2023-04-15T00:32:42;5.28;;;3.20;;
77888;SDS011;67082;41.704;44.768;2023-04-15T00:35:10;4.53;;;2.95;;
77888;SDS011;67082;41.704;44.768;2023-04-15T00:37:38;6.80;;;3.05;;
77888;SDS011;67082;41.704;44.768;2023-04-15T00:40:10;4.43;;;3.05;;
77888;SDS011;67082;41.704;44.768;2023-04-15T00:42:40;4.85;;;3.00;;
77888;SDS011;67082;41.704;44.768;2023-04-15T00:45:08;5.80;;;3.00;;
77888;SDS011;67082;41.704;44.768;2023-04-15T00:47:37;4.32;;;2.92;;
77888;SDS011;67082;41.704;44.768;2023-04-15T00:50:08;5.43;;;3.55;;
77888;SDS011;67082;41.704;44.768;2023-04-15T00:52:37;5.57;;;3.55;;
77888;SDS011;67082;41.704;44.768;2023-04-15T00:55:06;4.13;;;3.10;;
77888;SDS011;67082;41.704;44.768;2023-04-15T00:57:35;5.20;;;3.45;;
77888;SDS011;67082;41.704;44.768;2023-04-15T01:00:05;6.93;;;3.53;;
77888;SDS011;67082;41.704;44.768;2023-04-15T01:02:38;4.72;;;3.20;;
77888;SDS011;67082;41.704;44.768;2023-04-15T01:05:07;5.63;;;3.08;;
77888;SDS011;67082;41.704;44.768;2023-04-15T01:07:36;6.88;;;3.58;;
77888;SDS011;67082;41.704;44.768;2023-04-15T01:10:06;6.07;;;3.58;;
77888;SDS011;67082;41.704;44.768;2023-04-15T01:12:34;5.28;;;3.70;;
77888;SDS011;67082;41.704;44.768;2023-04-15T01:15:04;6.57;;;4.32;;
77888;SDS011;67082;41.704;44.768;2023-04-15T01:17:33;5.65;;;3.58;;
77888;SDS011;67082;41.704;44.768;2023-04-15T01:20:02;5.93;;;4.00;;
77888;SDS011;67082;41.704;44.768;2023-04-15T01:22:31;5.40;;;3.88;;
77888;SDS011;67082;41.704;44.768;2023-04-15T01:27:39;5.85;;;3.20;;
77888;SDS011;67082;41.704;44.768;2023-04-15T01:30:09;5.22;;;3.30;;
77888;SDS011;67082;41.704;44.768;2023-04-15T01:32:37;5.72;;;3.60;;
77888;SDS011;67082;41.704;44.768;2023-04-15T01:35:25;6.28;;;3.55;;
77888;SDS011;67082;41.704;44.768;2023-04-15T01:37:53;6.65;;;4.05;;
77888;SDS011;67082;41.704;44.768;2023-04-15T01:40:23;6.75;;;4.15;;
77888;SDS011;67082;41.704;44.768;2023-04-15T01:42:52;5.75;;;3.78;;
77888;SDS011;67082;41.704;44.768;2023-04-15T01:45:22;7.82;;;4.10;;
77888;SDS011;67082;41.704;44.768;2023-04-15T01:47:51;5.55;;;3.83;;
77888;SDS011;67082;41.704;44.768;2023-04-15T01:50:21;4.72;;;3.47;;
77888;SDS011;67082;41.704;44.768;2023-04-15T01:52:50;8.20;;;4.05;;
77888;SDS011;67082;41.704;44.768;2023-04-15T01:55:19;6.68;;;3.78;;
77888;SDS011;67082;41.704;44.768;2023-04-15T01:57:49;6.38;;;3.85;;
77888;SDS011;67082;41.704;44.768;2023-04-15T02:00:18;5.53;;;3.75;;
77888;SDS011;67082;41.704;44.768;2023-04-15T02:02:48;5.70;;;3.88;;
77888;SDS011;67082;41.704;44.768;2023-04-15T02:05:17;5.15;;;3.80;;
77888;SDS011;67082;41.704;44.768;2023-04-15T02:07:48;5.75;;;3.70;;
77888;SDS011;67082;41.704;44.768;2023-04-15T02:10:18;8.88;;;3.50;;
77888;SDS011;67082;41.704;44.768;2023-04-15T02:12:47;6.75;;;3.47;;
77888;SDS011;67082;41.704;44.768;2023-04-15T02:15:16;6.05;;;3.40;;
77888;SDS011;67082;41.704;44.768;2023-04-15T02:17:45;4.68;;;3.15;;
77888;SDS011;67082;41.704;44.768;2023-04-15T02:20:18;5.93;;;3.50;;
77888;SDS011;67082;41.704;44.768;2023-04-15T02:22:48;5.60;;;3.40;;
77888;SDS011;67082;41.704;44.768;2023-04-15T02:25:18;5.60;;;3.83;;
77888;SDS011;67082;41.704;44.768;2023-04-15T02:27:48;6.90;;;3.55;;
77888;SDS011;67082;41.704;44.768;2023-04-15T02:30:17;8.43;;;3.42;;
77888;SDS011;67082;41.704;44.768;2023-04-15T02:32:46;6.25;;;3.65;;
77888;SDS011;67082;41.704;44.768;2023-04-15T02:35:16;7.22;;;3.60;;
77888;SDS011;67082;41.704;44.768;2023-04-15T02:37:47;5.03;;;3.30;;
77888;SDS011;67082;41.704;44.768;2023-04-15T02:40:18;5.43;;;3.25;;
77888;SDS011;67082;41.704;44.768;2023-04-15T02:42:47;4.75;;;3.15;;
77888;SDS011;67082;41.704;44.768;2023-04-15T02:45:18;5.22;;;3.63;;
77888;SDS011;67082;41.704;44.768;2023-04-15T02:47:51;5.70;;;3.03;;
77888;SDS011;67082;41.704;44.768;2023-04-15T02:50:20;8.07;;;3.53;;
77888;SDS011;67082;41.704;44.768;2023-04-15T02:52:51;5.35;;;3.38;;
77888;SDS011;67082;41.704;44.768;2023-04-15T02:55:20;5.75;;;3.55;;
77888;SDS011;67082;41.704;44.768;2023-04-15T02:57:50;5.50;;;3.40;;
77888;SDS011;67082;41.704;44.768;2023-04-15T03:00:20;5.68;;;3.50;;
77888;SDS011;67082;41.704;44.768;2023-04-15T03:02:49;6.07;;;4.00;;
77888;SDS011;67082;41.704;44.768;2023-04-15T03:05:24;6.57;;;3.60;;
77888;SDS011;67082;41.704;44.768;2023-04-15T03:07:54;6.38;;;4.10;;
77888;SDS011;67082;41.704;44.768;2023-04-15T03:10:24;6.75;;;4.20;;
77888;SDS011;67082;41.704;44.768;2023-04-15T03:12:53;5.68;;;2.58;;
77888;SDS011;67082;41.704;44.768;2023-04-15T03:15:24;7.47;;;3.35;;
77888;SDS011;67082;41.704;44.768;2023-04-15T03:17:54;7.03;;;3.95;;
77888;SDS011;67082;41.704;44.768;2023-04-15T03:20:24;6.28;;;3.28;;
77888;SDS011;67082;41.704;44.768;2023-04-15T03:22:53;4.13;;;2.58;;
77888;SDS011;67082;41.704;44.768;2023-04-15T03:25:24;5.63;;;3.65;;
77888;SDS011;67082;41.704;44.768;2023-04-15T03:27:53;5.68;;;3.55;;
77888;SDS011;67082;41.704;44.768;2023-04-15T03:30:22;6.82;;;3.20;;
77888;SDS011;67082;41.704;44.768;2023-04-15T03:32:51;6.38;;;3.38;;
77888;SDS011;67082;41.704;44.768;2023-04-15T03:35:21;6.38;;;3.88;;
77888;SDS011;67082;41.704;44.768;2023-04-15T03:37:50;9.82;;;3.65;;
77888;SDS011;67082;41.704;44.768;2023-04-15T03:40:20;8.00;;;3.72;;
77888;SDS011;67082;41.704;44.768;2023-04-15T03:42:49;8.43;;;3.92;;
77888;SDS011;67082;41.704;44.768;2023-04-15T03:45:19;5.65;;;3.40;;
77888;SDS011;67082;41.704;44.768;2023-04-15T03:47:48;6.65;;;3.67;;
77888;SDS011;67082;41.704;44.768;2023-04-15T03:50:17;8.48;;;3.53;;
77888;SDS011;67082;41.704;44.768;2023-04-15T03:52:46;9.48;;;3.40;;
77888;SDS011;67082;41.704;44.768;2023-04-15T03:55:18;6.90;;;3.67;;
77888;SDS011;67082;41.704;44.768;2023-04-15T03:57:48;5.25;;;3.78;;
77888;SDS011;67082;41.704;44.768;2023-04-15T04:00:17;8.18;;;4.03;;
77888;SDS011;67082;41.704;44.768;2023-04-15T04:02:47;8.50;;;4.28;;
77888;SDS011;67082;41.704;44.768;2023-04-15T04:05:17;7.45;;;4.03;;
77888;SDS011;67082;41.704;44.768;2023-04-15T04:07:46;9.38;;;4.18;;
77888;SDS011;67082;41.704;44.768;2023-04-15T04:10:15;4.88;;;3.20;;
77888;SDS011;67082;41.704;44.768;2023-04-15T04:12:45;6.10;;;2.90;;
77888;SDS011;67082;41.704;44.768;2023-04-15T04:15:14;4.00;;;2.60;;
77888;SDS011;67082;41.704;44.768;2023-04-15T04:17:44;8.45;;;4.25;;
77888;SDS011;67082;41.704;44.768;2023-04-15T04:20:13;10.35;;;4.30;;
77888;SDS011;67082;41.704;44.768;2023-04-15T04:22:42;7.80;;;3.58;;
77888;SDS011;67082;41.704;44.768;2023-04-15T04:25:12;6.55;;;3.55;;
77888;SDS011;67082;41.704;44.768;2023-04-15T04:27:41;7.40;;;3.92;;
77888;SDS011;67082;41.704;44.768;2023-04-15T04:30:11;7.95;;;3.70;;
77888;SDS011;67082;41.704;44.768;2023-04-15T04:32:40;6.55;;;3.78;;
77888;SDS011;67082;41.704;44.768;2023-04-15T04:35:09;8.30;;;3.60;;
77888;SDS011;67082;41.704;44.768;2023-04-15T04:37:38;7.60;;;3.50;;
77888;SDS011;67082;41.704;44.768;2023-04-15T04:40:08;7.50;;;3.58;;
77888;SDS011;67082;41.704;44.768;2023-04-15T04:42:38;9.30;;;3.63;;
77888;SDS011;67082;41.704;44.768;2023-04-15T04:45:08;6.22;;;3.25;;
77888;SDS011;67082;41.704;44.768;2023-04-15T04:47:37;8.38;;;4.05;;
77888;SDS011;67082;41.704;44.768;2023-04-15T04:50:07;8.95;;;3.10;;
77888;SDS011;67082;41.704;44.768;2023-04-15T04:52:36;6.70;;;3.15;;
77888;SDS011;67082;41.704;44.768;2023-04-15T04:55:06;4.28;;;2.97;;
77888;SDS011;67082;41.704;44.768;2023-04-15T04:57:36;4.93;;;3.03;;
77888;SDS011;67082;41.704;44.768;2023-04-15T05:00:07;7.57;;;3.25;;
77888;SDS011;67082;41.704;44.768;2023-04-15T05:02:37;5.35;;;3.50;;
77888;SDS011;67082;41.704;44.768;2023-04-15T05:05:06;5.75;;;2.90;;
77888;SDS011;67082;41.704;44.768;2023-04-15T05:07:36;7.00;;;3.13;;
77888;SDS011;67082;41.704;44.768;2023-04-15T05:10:06;7.32;;;2.97;;
77888;SDS011;67082;41.704;44.768;2023-04-15T05:12:36;5.18;;;2.85;;
77888;SDS011;67082;41.704;44.768;2023-04-15T05:15:06;4.38;;;3.00;;
77888;SDS011;67082;41.704;44.768;2023-04-15T05:17:36;7.65;;;3.42;;
77888;SDS011;67082;41.704;44.768;2023-04-15T05:20:05;5.13;;;3.40;;
77888;SDS011;67082;41.704;44.768;2023-04-15T05:22:35;6.65;;;3.40;;
77888;SDS011;67082;41.704;44.768;2023-04-15T05:25:05;5.93;;;3.05;;
77888;SDS011;67082;41.704;44.768;2023-04-15T05:27:34;8.07;;;3.00;;
77888;SDS011;67082;41.704;44.768;2023-04-15T05:30:04;4.55;;;2.95;;
77888;SDS011;67082;41.704;44.768;2023-04-15T05:32:34;6.47;;;3.03;;
77888;SDS011;67082;41.704;44.768;2023-04-15T05:35:04;6.68;;;3.30;;
77888;SDS011;67082;41.704;44.768;2023-04-15T05:37:34;5.35;;;2.67;;
77888;SDS011;67082;41.704;44.768;2023-04-15T05:40:04;5.18;;;3.00;;
77888;SDS011;67082;41.704;44.768;2023-04-15T05:42:33;9.55;;;3.17;;
77888;SDS011;67082;41.704;44.768;2023-04-15T05:45:03;5.25;;;2.85;;
77888;SDS011;67082;41.704;44.768;2023-04-15T05:47:36;8.82;;;3.42;;
77888;SDS011;67082;41.704;44.768;2023-04-15T05:50:06;3.55;;;2.50;;
77888;SDS011;67082;41.704;44.768;2023-04-15T05:52:35;3.97;;;2.70;;
77888;SDS011;67082;41.704;44.768;2023-04-15T05:55:05;5.88;;;2.78;;
77888;SDS011;67082;41.704;44.768;2023-04-15T05:57:34;6.53;;;2.83;;
77888;SDS011;67082;41.704;44.768;2023-04-15T06:00:04;4.97;;;2.80;;
77888;SDS011;67082;41.704;44.768;2023-04-15T06:02:39;7.73;;;3.07;;
77888;SDS011;67082;41.704;44.768;2023-04-15T06:05:09;5.82;;;2.53;;
77888;SDS011;67082;41.704;44.768;2023-04-15T06:07:39;4.82;;;3.00;;
77888;SDS011;67082;41.704;44.768;2023-04-15T06:10:09;7.07;;;2.92;;
77888;SDS011;67082;41.704;44.768;2023-04-15T06:12:38;5.25;;;2.78;;
77888;SDS011;67082;41.704;44.768;2023-04-15T06:15:07;5.75;;;2.67;;
77888;SDS011;67082;41.704;44.768;2023-04-15T06:17:40;5.18;;;2.78;;
77888;SDS011;67082;41.704;44.768;2023-04-15T06:20:09;3.17;;;2.15;;
77888;SDS011;67082;41.704;44.768;2023-04-15T06:22:39;8.45;;;2.33;;
77888;SDS011;67082;41.704;44.768;2023-04-15T06:25:09;4.55;;;2.05;;
77888;SDS011;67082;41.704;44.768;2023-04-15T06:27:38;3.00;;;2.00;;
77888;SDS011;67082;41.704;44.768;2023-04-15T06:30:08;3.95;;;2.22;;
77888;SDS011;67082;41.704;44.768;2023-04-15T06:32:37;6.05;;;2.20;;
77888;SDS011;67082;41.704;44.768;2023-04-15T06:35:07;3.55;;;2.08;;
77888;SDS011;67082;41.704;44.768;2023-04-15T06:37:37;3.40;;;2.05;;
77888;SDS011;67082;41.704;44.768;2023-04-15T06:40:06;3.40;;;2.15;;
77888;SDS011;67082;41.704;44.768;2023-04-15T06:42:37;3.83;;;2.15;;
77888;SDS011;67082;41.704;44.768;2023-04-15T06:45:07;7.25;;;2.47;;
77888;SDS011;67082;41.704;44.768;2023-04-15T06:47:37;4.72;;;2.30;;
77888;SDS011;67082;41.704;44.768;2023-04-15T06:50:06;4.40;;;2.10;;
77888;SDS011;67082;41.704;44.768;2023-04-15T06:52:36;5.93;;;2.35;;
77888;SDS011;67082;41.704;44.768;2023-04-15T06:55:06;5.55;;;2.10;;
77888;SDS011;67082;41.704;44.768;2023-04-15T06:57:36;7.40;;;2.40;;
77888;SDS011;67082;41.704;44.768;2023-04-15T07:00:05;4.85;;;2.10;;
77888;SDS011;67082;41.704;44.768;2023-04-15T07:02:35;3.35;;;2.45;;
77888;SDS011;67082;41.704;44.768;2023-04-15T07:05:05;4.55;;;2.00;;
77888;SDS011;67082;41.704;44.768;2023-04-15T07:07:34;3.55;;;2.15;;
77888;SDS011;67082;41.704;44.768;2023-04-15T07:10:04;4.07;;;1.90;;
77888;SDS011;67082;41.704;44.768;2023-04-15T07:12:34;7.22;;;2.17;;
77888;SDS011;67082;41.704;44.768;2023-04-15T07:15:04;3.33;;;2.30;;
77888;SDS011;67082;41.704;44.768;2023-04-15T07:17:34;7.25;;;2.50;;
77888;SDS011;67082;41.704;44.768;2023-04-15T07:20:04;4.90;;;2.38;;
77888;SDS011;67082;41.704;44.768;2023-04-15T07:22:33;4.47;;;2.33;;
77888;SDS011;67082;41.704;44.768;2023-04-15T07:25:03;5.60;;;2.88;;
77888;SDS011;67082;41.704;44.768;2023-04-15T07:27:32;4.75;;;2.53;;
77888;SDS011;67082;41.704;44.768;2023-04-15T07:30:01;5.82;;;2.60;;
77888;SDS011;67082;41.704;44.768;2023-04-15T07:32:31;6.40;;;2.53;;
77888;SDS011;67082;41.704;44.768;2023-04-15T07:35:00;5.88;;;2.55;;
77888;SDS011;67082;41.704;44.768;2023-04-15T07:37:31;3.70;;;2.33;;
77888;SDS011;67082;41.704;44.768;2023-04-15T07:40:01;4.57;;;2.40;;
77888;SDS011;67082;41.704;44.768;2023-04-15T07:42:34;3.78;;;2.20;;
77888;SDS011;67082;41.704;44.768;2023-04-15T07:45:07;3.78;;;2.38;;
77888;SDS011;67082;41.704;44.768;2023-04-15T07:47:37;4.35;;;2.40;;
77888;SDS011;67082;41.704;44.768;2023-04-15T07:50:06;5.40;;;2.70;;
77888;SDS011;67082;41.704;44.768;2023-04-15T07:52:37;5.97;;;2.67;;
77888;SDS011;67082;41.704;44.768;2023-04-15T07:55:07;4.28;;;2.78;;
77888;SDS011;67082;41.704;44.768;2023-04-15T07:57:37;4.07;;;2.63;;
77888;SDS011;67082;41.704;44.768;2023-04-15T08:00:06;3.83;;;2.20;;
77888;SDS011;67082;41.704;44.768;2023-04-15T08:02:42;4.78;;;2.58;;
77888;SDS011;67082;41.704;44.768;2023-04-15T08:05:12;5.95;;;2.70;;
77888;SDS011;67082;41.704;44.768;2023-04-15T08:07:42;3.75;;;2.30;;
77888;SDS011;67082;41.704;44.768;2023-04-15T08:10:11;3.45;;;2.38;;
77888;SDS011;67082;41.704;44.768;2023-04-15T08:12:41;5.03;;;2.88;;
77888;SDS011;67082;41.704;44.768;2023-04-15T08:15:10;4.03;;;2.55;;
77888;SDS011;67082;41.704;44.768;2023-04-15T08:17:40;4.35;;;2.70;;
77888;SDS011;67082;41.704;44.768;2023-04-15T08:20:11;4.68;;;2.75;;
77888;SDS011;67082;41.704;44.768;2023-04-15T08:22:40;5.57;;;2.60;;
77888;SDS011;67082;41.704;44.768;2023-04-15T08:25:10;4.15;;;2.58;;
77888;SDS011;67082;41.704;44.768;2023-04-15T08:27:39;7.68;;;3.00;;
77888;SDS011;67082;41.704;44.768;2023-04-15T08:30:09;4.05;;;2.40;;
77888;SDS011;67082;41.704;44.768;2023-04-15T08:32:38;4.57;;;2.50;;
77888;SDS011;67082;41.704;44.768;2023-04-15T08:35:07;5.13;;;2.25;;
77888;SDS011;67082;41.704;44.768;2023-04-15T08:37:37;8.15;;;2.60;;
77888;SDS011;67082;41.704;44.768;2023-04-15T08:40:07;7.28;;;2.22;;
77888;SDS011;67082;41.704;44.768;2023-04-15T08:42:40;4.40;;;2.25;;
77888;SDS011;67082;41.704;44.768;2023-04-15T08:45:13;3.83;;;2.38;;
77888;SDS011;67082;41.704;44.768;2023-04-15T08:47:42;4.35;;;2.35;;
77888;SDS011;67082;41.704;44.768;2023-04-15T08:50:15;6.47;;;2.70;;
77888;SDS011;67082;41.704;44.768;2023-04-15T08:52:45;5.20;;;2.63;;
77888;SDS011;67082;41.704;44.768;2023-04-15T08:55:15;4.35;;;2.25;;
77888;SDS011;67082;41.704;44.768;2023-04-15T08:57:45;6.07;;;2.40;;
77888;SDS011;67082;41.704;44.768;2023-04-15T09:00:14;4.43;;;2.33;;
77888;SDS011;67082;41.704;44.768;2023-04-15T09:02:45;6.97;;;2.20;;
77888;SDS011;67082;41.704;44.768;2023-04-15T09:05:15;4.50;;;2.42;;
77888;SDS011;67082;41.704;44.768;2023-04-15T09:07:45;6.88;;;2.65;;
77888;SDS011;67082;41.704;44.768;2023-04-15T09:10:14;5.13;;;2.35;;
77888;SDS011;67082;41.704;44.768;2023-04-15T09:12:43;7.22;;;2.50;;
77888;SDS011;67082;41.704;44.768;2023-04-15T09:15:13;3.80;;;2.60;;
77888;SDS011;67082;41.704;44.768;2023-04-15T09:17:44;5.00;;;2.47;;
77888;SDS011;67082;41.704;44.768;2023-04-15T09:20:14;4.07;;;2.35;;
77888;SDS011;67082;41.704;44.768;2023-04-15T09:22:46;7.07;;;2.28;;
77888;SDS011;67082;41.704;44.768;2023-04-15T09:27:53;3.80;;;2.20;;
77888;SDS011;67082;41.704;44.768;2023-04-15T09:30:25;4.90;;;2.30;;
77888;SDS011;67082;41.704;44.768;2023-04-15T09:35:30;4.65;;;2.42;;
77888;SDS011;67082;41.704;44.768;2023-04-15T09:38:03;3.78;;;2.38;;
77888;SDS011;67082;41.704;44.768;2023-04-15T09:40:40;5.32;;;2.15;;
77888;SDS011;67082;41.704;44.768;2023-04-15T09:43:10;5.97;;;2.03;;
77888;SDS011;67082;41.704;44.768;2023-04-15T09:45:46;4.78;;;2.20;;
77888;SDS011;67082;41.704;44.768;2023-04-15T09:48:22;4.35;;;2.40;;
77888;SDS011;67082;41.704;44.768;2023-04-15T09:50:56;5.97;;;2.35;;
77888;SDS011;67082;41.704;44.768;2023-04-15T09:53:28;3.78;;;2.10;;
77888;SDS011;67082;41.704;44.768;2023-04-15T09:55:59;4.05;;;2.38;;
77888;SDS011;67082;41.704;44.768;2023-04-15T09:58:30;4.47;;;2.00;;
77888;SDS011;67082;41.704;44.768;2023-04-15T10:01:03;4.05;;;2.28;;
77888;SDS011;67082;41.704;44.768;2023-04-15T10:03:36;4.22;;;2.15;;
77888;SDS011;67082;41.704;44.768;2023-04-15T10:06:10;3.47;;;2.17;;
77888;SDS011;67082;41.704;44.768;2023-04-15T10:08:39;4.68;;;2.28;;
77888;SDS011;67082;41.704;44.768;2023-04-15T10:11:09;7.05;;;2.38;;
77888;SDS011;67082;41.704;44.768;2023-04-15T10:13:40;3.88;;;1.80;;
77888;SDS011;67082;41.704;44.768;2023-04-15T10:16:13;4.88;;;2.15;;
77888;SDS011;67082;41.704;44.768;2023-04-15T10:18:45;5.10;;;2.15;;
77888;SDS011;67082;41.704;44.768;2023-04-15T10:21:19;4.03;;;2.00;;
77888;SDS011;67082;41.704;44.768;2023-04-15T10:23:50;3.88;;;1.90;;
77888;SDS011;67082;41.704;44.768;2023-04-15T10:26:20;7.13;;;2.20;;
77888;SDS011;67082;41.704;44.768;2023-04-15T10:28:50;5.57;;;2.55;;
77888;SDS011;67082;41.704;44.768;2023-04-15T10:31:21;6.82;;;2.88;;
77888;SDS011;67082;41.704;44.768;2023-04-15T10:33:51;3.45;;;2.00;;
77888;SDS011;67082;41.704;44.768;2023-04-15T10:36:21;5.30;;;2.13;;
77888;SDS011;67082;41.704;44.768;2023-04-15T10:38:50;6.55;;;1.90;;
77888;SDS011;67082;41.704;44.768;2023-04-15T10:41:24;3.55;;;2.00;;
77888;SDS011;67082;41.704;44.768;2023-04-15T10:44:02;5.00;;;2.00;;
77888;SDS011;67082;41.704;44.768;2023-04-15T10:51:49;4.70;;;1.88;;
77888;SDS011;67082;41.704;44.768;2023-04-15T10:59:38;4.30;;;1.95;;
77888;SDS011;67082;41.704;44.768;2023-04-15T11:02:42;4.28;;;1.98;;
77888;SDS011;67082;41.704;44.768;2023-04-15T11:05:16;4.28;;;2.00;;
77888;SDS011;67082;41.704;44.768;2023-04-15T11:07:53;3.33;;;2.13;;
77888;SDS011;67082;41.704;44.768;2023-04-15T11:12:59;4.68;;;2.15;;
77888;SDS011;67082;41.704;44.768;2023-04-15T11:15:34;5.38;;;2.25;;
77888;SDS011;67082;41.704;44.768;2023-04-15T11:20:49;6.05;;;1.95;;
77888;SDS011;67082;41.704;44.768;2023-04-15T11:26:25;4.35;;;2.20;;
77888;SDS011;67082;41.704;44.768;2023-04-15T11:28:55;4.53;;;2.15;;
77888;SDS011;67082;41.704;44.768;2023-04-15T11:31:25;5.47;;;1.80;;
77888;SDS011;67082;41.704;44.768;2023-04-15T11:33:57;5.72;;;2.30;;
77888;SDS011;67082;41.704;44.768;2023-04-15T11:36:29;3.65;;;2.10;;
77888;SDS011;67082;41.704;44.768;2023-04-15T11:39:00;6.20;;;2.05;;
77888;SDS011;67082;41.704;44.768;2023-04-15T11:41:29;4.22;;;2.10;;
77888;SDS011;67082;41.704;44.768;2023-04-15T11:43:58;4.88;;;2.35;;
77888;SDS011;67082;41.704;44.768;2023-04-15T11:46:28;3.85;;;1.98;;
77888;SDS011;67082;41.704;44.768;2023-04-15T11:49:00;3.95;;;2.10;;
77888;SDS011;67082;41.704;44.768;2023-04-15T11:51:33;3.78;;;2.10;;
77888;SDS011;67082;41.704;44.768;2023-04-15T11:54:03;5.00;;;1.95;;
77888;SDS011;67082;41.704;44.768;2023-04-15T11:56:31;5.45;;;1.98;;
77888;SDS011;67082;41.704;44.768;2023-04-15T11:59:00;3.05;;;1.92;;
77888;SDS011;67082;41.704;44.768;2023-04-15T12:01:32;7.22;;;2.17;;
77888;SDS011;67082;41.704;44.768;2023-04-15T12:04:09;4.25;;;2.30;;
77888;SDS011;67082;41.704;44.768;2023-04-15T12:06:43;4.75;;;2.20;;
77888;SDS011;67082;41.704;44.768;2023-04-15T12:09:12;4.18;;;1.98;;
77888;SDS011;67082;41.704;44.768;2023-04-15T12:11:45;4.53;;;2.00;;
77888;SDS011;67082;41.704;44.768;2023-04-15T12:14:30;3.60;;;2.05;;
77888;SDS011;67082;41.704;44.768;2023-04-15T12:17:00;3.92;;;2.10;;
77888;SDS011;67082;41.704;44.768;2023-04-15T12:19:30;2.78;;;1.98;;
77888;SDS011;67082;41.704;44.768;2023-04-15T12:22:05;4.80;;;2.10;;
77888;SDS011;67082;41.704;44.768;2023-04-15T12:27:09;2.85;;;1.90;;
77888;SDS011;67082;41.704;44.768;2023-04-15T12:29:39;3.90;;;1.90;;
77888;SDS011;67082;41.704;44.768;2023-04-15T12:32:10;3.72;;;2.00;;
77888;SDS011;67082;41.704;44.768;2023-04-15T12:34:52;4.45;;;2.20;;
77888;SDS011;67082;41.704;44.768;2023-04-15T12:37:24;3.80;;;1.70;;
77888;SDS011;67082;41.704;44.768;2023-04-15T12:39:52;6.05;;;2.22;;
77888;SDS011;67082;41.704;44.768;2023-04-15T12:42:21;9.40;;;1.90;;
77888;SDS011;67082;41.704;44.768;2023-04-15T12:44:49;5.30;;;1.83;;
77888;SDS011;67082;41.704;44.768;2023-04-15T12:47:17;7.28;;;2.20;;
77888;SDS011;67082;41.704;44.768;2023-04-15T12:49:45;3.78;;;2.10;;
77888;SDS011;67082;41.704;44.768;2023-04-15T12:52:13;4.40;;;2.10;;
77888;SDS011;67082;41.704;44.768;2023-04-15T12:54:41;3.40;;;2.03;;
77888;SDS011;67082;41.704;44.768;2023-04-15T12:57:09;2.92;;;2.08;;
77888;SDS011;67082;41.704;44.768;2023-04-15T12:59:37;5.35;;;2.22;;
77888;SDS011;67082;41.704;44.768;2023-04-15T13:02:05;5.80;;;2.00;;
77888;SDS011;67082;41.704;44.768;2023-04-15T13:04:34;8.10;;;2.20;;
77888;SDS011;67082;41.704;44.768;2023-04-15T13:07:02;4.05;;;2.00;;
77888;SDS011;67082;41.704;44.768;2023-04-15T13:09:30;4.45;;;2.40;;
77888;SDS011;67082;41.704;44.768;2023-04-15T13:11:58;2.78;;;1.67;;
77888;SDS011;67082;41.704;44.768;2023-04-15T13:14:27;3.60;;;2.10;;
77888;SDS011;67082;41.704;44.768;2023-04-15T13:16:55;3.25;;;2.33;;
77888;SDS011;67082;41.704;44.768;2023-04-15T13:19:23;3.85;;;2.17;;
77888;SDS011;67082;41.704;44.768;2023-04-15T13:21:52;3.00;;;1.98;;
77888;SDS011;67082;41.704;44.768;2023-04-15T13:24:20;4.05;;;2.13;;
77888;SDS011;67082;41.704;44.768;2023-04-15T13:26:47;3.75;;;2.05;;
77888;SDS011;67082;41.704;44.768;2023-04-15T13:29:16;5.05;;;2.13;;
77888;SDS011;67082;41.704;44.768;2023-04-15T13:31:44;4.13;;;2.20;;
77888;SDS011;67082;41.704;44.768;2023-04-15T13:34:12;3.47;;;2.20;;
77888;SDS011;67082;41.704;44.768;2023-04-15T13:36:40;5.75;;;2.17;;
77888;SDS011;67082;41.704;44.768;2023-04-15T13:39:08;4.03;;;2.00;;
77888;SDS011;67082;41.704;44.768;2023-04-15T13:41:36;7.72;;;2.55;;
77888;SDS011;67082;41.704;44.768;2023-04-15T13:44:04;3.85;;;2.00;;
77888;SDS011;67082;41.704;44.768;2023-04-15T13:46:32;4.93;;;2.20;;
77888;SDS011;67082;41.704;44.768;2023-04-15T13:49:01;3.65;;;2.00;;
77888;SDS011;67082;41.704;44.768;2023-04-15T13:51:29;4.45;;;2.20;;
77888;SDS011;67082;41.704;44.768;2023-04-15T13:53:58;5.43;;;2.45;;
77888;SDS011;67082;41.704;44.768;2023-04-15T13:56:26;3.90;;;2.30;;
77888;SDS011;67082;41.704;44.768;2023-04-15T13:58:54;5.32;;;2.10;;
77888;SDS011;67082;41.704;44.768;2023-04-15T14:01:25;4.57;;;2.33;;
77888;SDS011;67082;41.704;44.768;2023-04-15T14:03:53;5.68;;;2.10;;
77888;SDS011;67082;41.704;44.768;2023-04-15T14:06:22;6.43;;;2.10;;
77888;SDS011;67082;41.704;44.768;2023-04-15T14:08:50;3.15;;;2.17;;
77888;SDS011;67082;41.704;44.768;2023-04-15T14:11:19;4.28;;;2.17;;
77888;SDS011;67082;41.704;44.768;2023-04-15T14:13:47;3.40;;;2.20;;
77888;SDS011;67082;41.704;44.768;2023-04-15T14:16:15;5.95;;;2.35;;
77888;SDS011;67082;41.704;44.768;2023-04-15T14:18:43;3.85;;;2.10;;
77888;SDS011;67082;41.704;44.768;2023-04-15T14:21:11;4.60;;;2.33;;
77888;SDS011;67082;41.704;44.768;2023-04-15T14:23:39;8.73;;;2.45;;
77888;SDS011;67082;41.704;44.768;2023-04-15T14:26:07;6.72;;;2.47;;
77888;SDS011;67082;41.704;44.768;2023-04-15T14:28:35;2.85;;;2.08;;
77888;SDS011;67082;41.704;44.768;2023-04-15T14:31:05;5.82;;;2.30;;
77888;SDS011;67082;41.704;44.768;2023-04-15T14:33:33;4.03;;;2.17;;
77888;SDS011;67082;41.704;44.768;2023-04-15T14:36:01;6.57;;;2.22;;
77888;SDS011;67082;41.704;44.768;2023-04-15T14:38:29;3.45;;;2.20;;
77888;SDS011;67082;41.704;44.768;2023-04-15T14:40:57;3.72;;;2.15;;
77888;SDS011;67082;41.704;44.768;2023-04-15T14:43:26;5.13;;;2.15;;
77888;SDS011;67082;41.704;44.768;2023-04-15T14:45:54;5.78;;;2.35;;
77888;SDS011;67082;41.704;44.768;2023-04-15T14:48:22;7.75;;;2.38;;
77888;SDS011;67082;41.704;44.768;2023-04-15T14:50:51;5.07;;;2.10;;
77888;SDS011;67082;41.704;44.768;2023-04-15T14:53:20;5.15;;;2.35;;
77888;SDS011;67082;41.704;44.768;2023-04-15T14:55:48;3.20;;;2.08;;
77888;SDS011;67082;41.704;44.768;2023-04-15T14:58:16;2.97;;;2.17;;
77888;SDS011;67082;41.704;44.768;2023-04-15T15:00:44;3.72;;;2.15;;
77888;SDS011;67082;41.704;44.768;2023-04-15T15:03:12;5.78;;;2.15;;
77888;SDS011;67082;41.704;44.768;2023-04-15T15:05:41;5.47;;;2.10;;
77888;SDS011;67082;41.704;44.768;2023-04-15T15:08:14;3.97;;;2.03;;
77888;SDS011;67082;41.704;44.768;2023-04-15T15:10:41;6.22;;;2.30;;
77888;SDS011;67082;41.704;44.768;2023-04-15T15:13:16;3.05;;;2.10;;
77888;SDS011;67082;41.704;44.768;2023-04-15T15:15:45;6.60;;;2.10;;
77888;SDS011;67082;41.704;44.768;2023-04-15T15:18:16;3.20;;;2.10;;